sensor_id;sensor_type;location;lat;lon;timestamp;pressure;altitude;pressure_sealevel;temperature;humidity
74680;BME280;63211;48.548;2.704;2023-04-24T00:01:43;99991.16;;;18.91;51.71
74680;BME280;63211;48.548;2.704;2023-04-24T00:04:10;99984.59;;;18.92;51.95
74680;BME280;63211;48.548;2.704;2023-04-24T00:06:39;99981.03;;;18.92;51.75
74680;BME280;63211;48.548;2.704;2023-04-24T00:09:08;99980.22;;;18.91;52.09
74680;BME280;63211;48.548;2.704;2023-04-24T00:11:36;99979.06;;;18.87;52.29
74680;BME280;63211;48.548;2.704;2023-04-24T00:14:03;99984.53;;;18.87;52.35
74680;BME280;63211;48.548;2.704;2023-04-24T00:16:30;99982.88;;;18.86;52.40
74680;BME280;63211;48.548;2.704;2023-04-24T00:18:56;99988.31;;;18.86;52.41
74680;BME280;63211;48.548;2.704;2023-04-24T00:21:23;99994.34;;;18.88;52.19
74680;BME280;63211;48.548;2.704;2023-04-24T00:23:50;99989.16;;;18.86;52.04
74680;BME280;63211;48.548;2.704;2023-04-24T00:26:17;99991.88;;;18.86;52.17
74680;BME280;63211;48.548;2.704;2023-04-24T00:28:45;100000.31;;;18.85;52.43
74680;BME280;63211;48.548;2.704;2023-04-24T00:31:12;100012.28;;;18.84;52.51
74680;BME280;63211;48.548;2.704;2023-04-24T00:33:38;100001.63;;;18.82;52.43
74680;BME280;63211;48.548;2.704;2023-04-24T00:36:05;100008.97;;;18.82;52.68
74680;BME280;63211;48.548;2.704;2023-04-24T00:38:32;100010.88;;;18.81;52.53
74680;BME280;63211;48.548;2.704;2023-04-24T00:40:59;100012.53;;;18.82;52.33
74680;BME280;63211;48.548;2.704;2023-04-24T00:43:26;100010.28;;;18.79;52.24
74680;BME280;63211;48.548;2.704;2023-04-24T00:45:54;100020.72;;;18.82;52.65
74680;BME280;63211;48.548;2.704;2023-04-24T00:48:21;99971.00;;;18.52;52.33
74680;BME280;63211;48.548;2.704;2023-04-24T00:50:47;100027.47;;;18.80;52.55
74680;BME280;63211;48.548;2.704;2023-04-24T00:53:14;100024.16;;;18.78;52.44
74680;BME280;63211;48.548;2.704;2023-04-24T00:55:41;100023.81;;;18.74;53.10
74680;BME280;63211;48.548;2.704;2023-04-24T00:58:07;100020.84;;;18.76;52.56
74680;BME280;63211;48.548;2.704;2023-04-24T01:00:34;100017.53;;;18.74;52.94
74680;BME280;63211;48.548;2.704;2023-04-24T01:03:04;100036.13;;;18.77;52.56
74680;BME280;63211;48.548;2.704;2023-04-24T01:05:32;100033.41;;;18.77;52.63
74680;BME280;63211;48.548;2.704;2023-04-24T01:07:59;100038.03;;;18.76;52.35
74680;BME280;63211;48.548;2.704;2023-04-24T01:10:27;100027.38;;;18.75;52.49
74680;BME280;63211;48.548;2.704;2023-04-24T01:12:55;100029.84;;;18.76;52.37
74680;BME280;63211;48.548;2.704;2023-04-24T01:15:22;100027.13;;;18.76;52.57
74680;BME280;63211;48.548;2.704;2023-04-24T01:17:49;100033.66;;;18.75;52.61
74680;BME280;63211;48.548;2.704;2023-04-24T01:20:17;100032.25;;;18.73;52.62
74680;BME280;63211;48.548;2.704;2023-04-24T01:22:45;100028.69;;;18.72;52.86
74680;BME280;63211;48.548;2.704;2023-04-24T01:25:12;100028.13;;;18.70;52.85
74680;BME280;63211;48.548;2.704;2023-04-24T01:27:38;100026.47;;;18.69;52.73
74680;BME280;63211;48.548;2.704;2023-04-24T01:30:07;100021.84;;;18.70;52.45
74680;BME280;63211;48.548;2.704;2023-04-24T01:32:34;100013.31;;;18.66;52.57
74680;BME280;63211;48.548;2.704;2023-04-24T01:35:01;100030.19;;;18.80;52.26
74680;BME280;63211;48.548;2.704;2023-04-24T01:37:28;100033.38;;;18.88;52.29
74680;BME280;63211;48.548;2.704;2023-04-24T01:39:56;100036.69;;;18.91;52.23
74680;BME280;63211;48.548;2.704;2023-04-24T01:42:23;100041.88;;;18.92;52.44
74680;BME280;63211;48.548;2.704;2023-04-24T01:44:50;100050.63;;;18.94;52.33
74680;BME280;63211;48.548;2.704;2023-04-24T01:47:17;100045.75;;;18.96;52.29
74680;BME280;63211;48.548;2.704;2023-04-24T01:49:45;100051.06;;;19.03;52.23
74680;BME280;63211;48.548;2.704;2023-04-24T01:52:12;100047.63;;;19.07;51.36
74680;BME280;63211;48.548;2.704;2023-04-24T01:54:38;100050.25;;;19.02;51.52
74680;BME280;63211;48.548;2.704;2023-04-24T01:57:07;100059.41;;;18.96;51.17
74680;BME280;63211;48.548;2.704;2023-04-24T01:59:34;100055.25;;;18.94;51.50
74680;BME280;63211;48.548;2.704;2023-04-24T02:02:01;100062.63;;;18.93;51.10
74680;BME280;63211;48.548;2.704;2023-04-24T02:04:28;100060.72;;;18.94;51.35
74680;BME280;63211;48.548;2.704;2023-04-24T02:06:55;100060.72;;;18.94;51.33
74680;BME280;63211;48.548;2.704;2023-04-24T02:09:21;100064.50;;;18.93;51.59
74680;BME280;63211;48.548;2.704;2023-04-24T02:11:48;100058.22;;;18.92;51.88
74680;BME280;63211;48.548;2.704;2023-04-24T02:14:16;100059.06;;;18.93;51.65
74680;BME280;63211;48.548;2.704;2023-04-24T02:16:43;100056.25;;;18.87;51.80
74680;BME280;63211;48.548;2.704;2023-04-24T02:19:11;100059.34;;;18.91;52.04
74680;BME280;63211;48.548;2.704;2023-04-24T02:21:37;100063.38;;;18.88;52.00
74680;BME280;63211;48.548;2.704;2023-04-24T02:24:04;100057.34;;;18.86;52.46
74680;BME280;63211;48.548;2.704;2023-04-24T02:26:30;100061.38;;;18.84;52.38
74680;BME280;63211;48.548;2.704;2023-04-24T02:28:57;100070.63;;;18.83;52.61
74680;BME280;63211;48.548;2.704;2023-04-24T02:31:25;99967.97;;;18.20;52.26
74680;BME280;63211;48.548;2.704;2023-04-24T02:33:51;100073.13;;;18.84;52.14
74680;BME280;63211;48.548;2.704;2023-04-24T02:36:18;100063.50;;;18.82;52.30
74680;BME280;63211;48.548;2.704;2023-04-24T02:38:45;100072.28;;;18.84;52.18
74680;BME280;63211;48.548;2.704;2023-04-24T02:41:11;100074.19;;;18.83;52.12
74680;BME280;63211;48.548;2.704;2023-04-24T02:43:38;100076.09;;;18.83;52.08
74680;BME280;63211;48.548;2.704;2023-04-24T02:46:04;100078.81;;;18.83;52.42
74680;BME280;63211;48.548;2.704;2023-04-24T02:48:32;100079.88;;;18.82;52.13
74680;BME280;63211;48.548;2.704;2023-04-24T02:50:59;100076.56;;;18.80;52.08
74680;BME280;63211;48.548;2.704;2023-04-24T02:53:26;100078.94;;;18.76;52.48
74680;BME280;63211;48.548;2.704;2023-04-24T02:55:52;100081.66;;;18.76;52.42
74680;BME280;63211;48.548;2.704;2023-04-24T02:58:19;100090.91;;;18.75;52.57
74680;BME280;63211;48.548;2.704;2023-04-24T03:00:46;100092.00;;;18.74;52.35
74680;BME280;63211;48.548;2.704;2023-04-24T03:03:13;100092.00;;;18.74;52.11
74680;BME280;63211;48.548;2.704;2023-04-24T03:05:41;100083.47;;;18.71;51.99
74680;BME280;63211;48.548;2.704;2023-04-24T03:08:08;100093.66;;;18.75;52.21
74680;BME280;63211;48.548;2.704;2023-04-24T03:10:35;100099.94;;;18.76;52.08
74680;BME280;63211;48.548;2.704;2023-04-24T03:13:02;100108.13;;;18.76;51.99
74680;BME280;63211;48.548;2.704;2023-04-24T03:15:28;100098.50;;;18.73;51.84
74680;BME280;63211;48.548;2.704;2023-04-24T03:17:55;100116.53;;;18.74;52.38
74680;BME280;63211;48.548;2.704;2023-04-24T03:20:22;100107.75;;;18.72;52.52
74680;BME280;63211;48.548;2.704;2023-04-24T03:22:49;100113.72;;;18.69;52.46
74680;BME280;63211;48.548;2.704;2023-04-24T03:25:16;100104.97;;;18.67;52.59
74680;BME280;63211;48.548;2.704;2023-04-24T03:27:43;100116.69;;;18.68;52.18
74680;BME280;63211;48.548;2.704;2023-04-24T03:30:10;100118.44;;;18.74;52.06
74680;BME280;63211;48.548;2.704;2023-04-24T03:32:37;100113.44;;;18.82;51.59
74680;BME280;63211;48.548;2.704;2023-04-24T03:35:05;100111.88;;;18.86;52.03
74680;BME280;63211;48.548;2.704;2023-04-24T03:37:32;100114.38;;;18.88;51.70
74680;BME280;63211;48.548;2.704;2023-04-24T03:40:00;100117.94;;;18.88;52.02
74680;BME280;63211;48.548;2.704;2023-04-24T03:42:27;100120.97;;;18.92;52.13
74680;BME280;63211;48.548;2.704;2023-04-24T03:44:53;100118.84;;;18.94;52.16
74680;BME280;63211;48.548;2.704;2023-04-24T03:47:20;100118.09;;;18.99;51.92
74680;BME280;63211;48.548;2.704;2023-04-24T03:49:46;100090.31;;;18.85;51.03
74680;BME280;63211;48.548;2.704;2023-04-24T03:52:13;100119.53;;;19.01;50.72
74680;BME280;63211;48.548;2.704;2023-04-24T03:54:39;100125.13;;;18.95;51.18
74680;BME280;63211;48.548;2.704;2023-04-24T03:57:07;100121.25;;;18.91;50.97
74680;BME280;63211;48.548;2.704;2023-04-24T03:59:34;100122.56;;;18.88;51.16
74680;BME280;63211;48.548;2.704;2023-04-24T04:02:00;100120.66;;;18.88;51.23
74680;BME280;63211;48.548;2.704;2023-04-24T04:04:27;100119.81;;;18.88;51.09
74680;BME280;63211;48.548;2.704;2023-04-24T04:06:54;100126.34;;;18.87;51.39
74680;BME280;63211;48.548;2.704;2023-04-24T04:09:20;100134.28;;;18.88;51.16
74680;BME280;63211;48.548;2.704;2023-04-24T04:11:47;100132.63;;;18.87;51.29
74680;BME280;63211;48.548;2.704;2023-04-24T04:14:15;100138.91;;;18.88;51.39
74680;BME280;63211;48.548;2.704;2023-04-24T04:16:41;100138.91;;;18.88;51.58
74680;BME280;63211;48.548;2.704;2023-04-24T04:19:08;100141.88;;;18.86;51.58
74680;BME280;63211;48.548;2.704;2023-04-24T04:21:34;100152.22;;;18.84;51.64
74680;BME280;63211;48.548;2.704;2023-04-24T04:24:01;100149.97;;;18.81;51.92
74680;BME280;63211;48.548;2.704;2023-04-24T04:26:28;100163.84;;;18.80;51.77
74680;BME280;63211;48.548;2.704;2023-04-24T04:28:57;100157.78;;;18.78;51.62
74680;BME280;63211;48.548;2.704;2023-04-24T04:31:27;100157.56;;;18.79;51.59
74680;BME280;63211;48.548;2.704;2023-04-24T04:33:53;100167.41;;;18.80;51.66
74680;BME280;63211;48.548;2.704;2023-04-24T04:36:20;100161.94;;;18.80;51.95
74680;BME280;63211;48.548;2.704;2023-04-24T04:38:46;100168.47;;;18.79;51.89
74680;BME280;63211;48.548;2.704;2023-04-24T04:41:13;100164.91;;;18.79;51.75
74680;BME280;63211;48.548;2.704;2023-04-24T04:43:42;100176.63;;;18.79;51.73
74680;BME280;63211;48.548;2.704;2023-04-24T04:46:08;100176.88;;;18.78;51.71
74680;BME280;63211;48.548;2.704;2023-04-24T04:48:37;100177.94;;;18.77;51.97
74680;BME280;63211;48.548;2.704;2023-04-24T04:51:05;100184.47;;;18.76;51.68
74680;BME280;63211;48.548;2.704;2023-04-24T04:53:31;100183.88;;;18.74;51.83
74680;BME280;63211;48.548;2.704;2023-04-24T04:55:58;100181.38;;;18.72;51.79
74680;BME280;63211;48.548;2.704;2023-04-24T04:58:25;100195.25;;;18.71;52.32
74680;BME280;63211;48.548;2.704;2023-04-24T05:00:51;100200.97;;;18.69;51.74
74680;BME280;63211;48.548;2.704;2023-04-24T05:03:18;100198.25;;;18.69;51.69
74680;BME280;63211;48.548;2.704;2023-04-24T05:05:46;100207.28;;;18.70;51.51
74680;BME280;63211;48.548;2.704;2023-04-24T05:08:12;100210.81;;;18.70;51.83
74680;BME280;63211;48.548;2.704;2023-04-24T05:10:39;100226.09;;;18.71;51.88
74680;BME280;63211;48.548;2.704;2023-04-24T05:13:06;100232.88;;;18.69;51.71
74680;BME280;63211;48.548;2.704;2023-04-24T05:15:32;100232.13;;;18.73;51.78
74680;BME280;63211;48.548;2.704;2023-04-24T05:17:59;100234.75;;;18.80;51.32
74680;BME280;63211;48.548;2.704;2023-04-24T05:20:26;100241.75;;;18.87;51.52
74680;BME280;63211;48.548;2.704;2023-04-24T05:22:53;100248.84;;;18.88;51.73
74680;BME280;63211;48.548;2.704;2023-04-24T05:25:20;100255.97;;;18.90;51.49
74680;BME280;63211;48.548;2.704;2023-04-24T05:27:47;100259.53;;;18.90;51.23
74680;BME280;63211;48.548;2.704;2023-04-24T05:30:14;100260.09;;;18.92;51.55
74680;BME280;63211;48.548;2.704;2023-04-24T05:32:40;100271.34;;;18.96;51.43
74680;BME280;63211;48.548;2.704;2023-04-24T05:35:08;100259.84;;;18.94;51.45
74680;BME280;63211;48.548;2.704;2023-04-24T05:37:34;100280.84;;;19.05;50.67
74680;BME280;63211;48.548;2.704;2023-04-24T05:40:03;100279.91;;;18.99;50.60
74680;BME280;63211;48.548;2.704;2023-04-24T05:42:30;100290.69;;;18.94;50.59
74680;BME280;63211;48.548;2.704;2023-04-24T05:44:57;100287.28;;;18.87;51.53
74680;BME280;63211;48.548;2.704;2023-04-24T05:47:24;100288.47;;;18.79;51.73
74680;BME280;63211;48.548;2.704;2023-04-24T05:49:51;100285.03;;;18.72;51.92
74680;BME280;63211;48.548;2.704;2023-04-24T05:52:18;100295.59;;;18.69;52.17
74680;BME280;63211;48.548;2.704;2023-04-24T05:54:44;100300.44;;;18.67;52.15
74680;BME280;63211;48.548;2.704;2023-04-24T05:57:12;100304.25;;;18.66;52.11
74680;BME280;63211;48.548;2.704;2023-04-24T05:59:40;100305.53;;;18.63;52.04
74680;BME280;63211;48.548;2.704;2023-04-24T06:02:07;100308.50;;;18.62;52.41
74680;BME280;63211;48.548;2.704;2023-04-24T06:04:33;100312.31;;;18.61;52.77
74680;BME280;63211;48.548;2.704;2023-04-24T06:07:00;100298.63;;;18.37;52.58
74680;BME280;63211;48.548;2.704;2023-04-24T06:09:27;100319.47;;;18.55;53.10
74680;BME280;63211;48.548;2.704;2023-04-24T06:11:53;100322.44;;;18.53;53.40
74680;BME280;63211;48.548;2.704;2023-04-24T06:14:23;100332.50;;;18.53;53.89
74680;BME280;63211;48.548;2.704;2023-04-24T06:16:49;100333.81;;;18.50;53.78
74680;BME280;63211;48.548;2.704;2023-04-24T06:19:16;100337.13;;;18.52;54.74
74680;BME280;63211;48.548;2.704;2023-04-24T06:21:43;100340.09;;;18.51;54.76
74680;BME280;63211;48.548;2.704;2023-04-24T06:24:09;100350.66;;;18.47;54.99
74680;BME280;63211;48.548;2.704;2023-04-24T06:26:36;100350.06;;;18.45;54.86
74680;BME280;63211;48.548;2.704;2023-04-24T06:29:03;100348.63;;;18.43;54.72
74680;BME280;63211;48.548;2.704;2023-04-24T06:31:31;100349.69;;;18.42;54.46
74680;BME280;63211;48.548;2.704;2023-04-24T06:34:02;100347.31;;;18.34;54.35
74680;BME280;63211;48.548;2.704;2023-04-24T06:36:28;100345.41;;;18.34;54.87
74680;BME280;63211;48.548;2.704;2023-04-24T06:38:56;100356.69;;;18.38;54.67
74680;BME280;63211;48.548;2.704;2023-04-24T06:41:23;100360.47;;;18.37;54.96
74680;BME280;63211;48.548;2.704;2023-04-24T06:43:49;100373.25;;;18.36;54.70
74680;BME280;63211;48.548;2.704;2023-04-24T06:46:16;100371.84;;;18.34;54.82
74680;BME280;63211;48.548;2.704;2023-04-24T06:48:44;100373.72;;;18.33;54.75
74680;BME280;63211;48.548;2.704;2023-04-24T06:51:10;100378.13;;;18.34;54.76
74680;BME280;63211;48.548;2.704;2023-04-24T06:53:37;100373.25;;;18.36;54.43
74680;BME280;63211;48.548;2.704;2023-04-24T06:56:04;100369.00;;;18.40;54.48
74680;BME280;63211;48.548;2.704;2023-04-24T06:58:30;100371.88;;;18.45;54.44
74680;BME280;63211;48.548;2.704;2023-04-24T07:00:57;100373.06;;;18.49;54.26
74680;BME280;63211;48.548;2.704;2023-04-24T07:03:23;100375.91;;;18.54;53.91
74680;BME280;63211;48.548;2.704;2023-04-24T07:05:52;100377.34;;;18.57;54.44
74680;BME280;63211;48.548;2.704;2023-04-24T07:08:18;100368.09;;;18.58;54.19
74680;BME280;63211;48.548;2.704;2023-04-24T07:10:46;100330.13;;;18.33;54.40
74680;BME280;63211;48.548;2.704;2023-04-24T07:13:13;100370.44;;;18.54;54.18
74680;BME280;63211;48.548;2.704;2023-04-24T07:15:40;100376.38;;;18.51;54.26
74680;BME280;63211;48.548;2.704;2023-04-24T07:18:07;100369.25;;;18.50;54.37
74680;BME280;63211;48.548;2.704;2023-04-24T07:20:33;100373.31;;;18.48;54.73
74680;BME280;63211;48.548;2.704;2023-04-24T07:23:02;100370.81;;;18.46;54.14
74680;BME280;63211;48.548;2.704;2023-04-24T07:25:29;100376.50;;;18.45;54.26
74680;BME280;63211;48.548;2.704;2023-04-24T07:27:56;100375.91;;;18.43;54.20
74680;BME280;63211;48.548;2.704;2023-04-24T07:30:24;100373.41;;;18.41;54.10
74680;BME280;63211;48.548;2.704;2023-04-24T07:32:51;100369.09;;;18.34;54.43
74680;BME280;63211;48.548;2.704;2023-04-24T07:35:17;100377.66;;;18.37;54.55
74680;BME280;63211;48.548;2.704;2023-04-24T07:37:46;100378.94;;;18.35;54.23
74680;BME280;63211;48.548;2.704;2023-04-24T07:40:14;100387.97;;;18.35;54.40
74680;BME280;63211;48.548;2.704;2023-04-24T07:42:42;100391.75;;;18.34;54.40
74680;BME280;63211;48.548;2.704;2023-04-24T07:45:09;100389.00;;;18.34;54.55
74680;BME280;63211;48.548;2.704;2023-04-24T07:47:37;100396.59;;;18.32;54.29
74680;BME280;63211;48.548;2.704;2023-04-24T07:50:05;100398.72;;;18.30;54.44
74680;BME280;63211;48.548;2.704;2023-04-24T07:52:32;100403.34;;;18.30;54.23
74680;BME280;63211;48.548;2.704;2023-04-24T07:54:59;100396.25;;;18.29;54.57
74680;BME280;63211;48.548;2.704;2023-04-24T07:57:28;100396.47;;;18.27;54.60
74680;BME280;63211;48.548;2.704;2023-04-24T07:59:55;100404.66;;;18.27;54.65
74680;BME280;63211;48.548;2.704;2023-04-24T08:02:21;100407.63;;;18.26;54.24
74680;BME280;63211;48.548;2.704;2023-04-24T08:04:51;100406.19;;;18.23;54.71
74680;BME280;63211;48.548;2.704;2023-04-24T08:07:18;100399.28;;;18.20;54.49
74680;BME280;63211;48.548;2.704;2023-04-24T08:09:45;100410.19;;;18.20;54.62
74680;BME280;63211;48.548;2.704;2023-04-24T08:12:11;100404.13;;;18.18;54.85
74680;BME280;63211;48.548;2.704;2023-04-24T08:14:39;100410.19;;;18.20;54.66
74680;BME280;63211;48.548;2.704;2023-04-24T08:17:06;100410.19;;;18.20;54.53
74680;BME280;63211;48.548;2.704;2023-04-24T08:19:32;100420.41;;;18.25;54.27
74680;BME280;63211;48.548;2.704;2023-04-24T08:21:59;100422.41;;;18.30;54.15
74680;BME280;63211;48.548;2.704;2023-04-24T08:24:26;100420.88;;;18.34;54.23
74680;BME280;63211;48.548;2.704;2023-04-24T08:26:52;100428.38;;;18.38;53.99
74680;BME280;63211;48.548;2.704;2023-04-24T08:29:22;100421.78;;;18.46;54.65
74680;BME280;63211;48.548;2.704;2023-04-24T08:31:49;100424.75;;;18.56;54.16
74680;BME280;63211;48.548;2.704;2023-04-24T08:34:16;100424.16;;;18.54;54.01
74680;BME280;63211;48.548;2.704;2023-04-24T08:36:43;100430.66;;;18.53;54.09
74680;BME280;63211;48.548;2.704;2023-04-24T08:39:09;100429.84;;;18.52;54.42
74680;BME280;63211;48.548;2.704;2023-04-24T08:41:37;100433.84;;;18.50;54.71
74680;BME280;63211;48.548;2.704;2023-04-24T08:44:04;100434.94;;;18.49;54.50
74680;BME280;63211;48.548;2.704;2023-04-24T08:46:32;100436.25;;;18.46;54.41
74680;BME280;63211;48.548;2.704;2023-04-24T08:49:01;100432.69;;;18.46;54.37
74680;BME280;63211;48.548;2.704;2023-04-24T08:51:29;100394.22;;;18.24;54.33
74680;BME280;63211;48.548;2.704;2023-04-24T08:53:56;100445.06;;;18.60;53.78
74680;BME280;63211;48.548;2.704;2023-04-24T08:56:23;100438.94;;;18.76;53.78
74680;BME280;63211;48.548;2.704;2023-04-24T08:58:53;100392.63;;;18.58;53.68
74680;BME280;63211;48.548;2.704;2023-04-24T09:01:20;100432.78;;;18.81;53.21
74680;BME280;63211;48.548;2.704;2023-04-24T09:03:49;100439.66;;;18.83;53.60
74680;BME280;63211;48.548;2.704;2023-04-24T09:06:21;100427.81;;;18.90;53.49
74680;BME280;63211;48.548;2.704;2023-04-24T09:08:50;100429.00;;;18.94;53.17
74680;BME280;63211;48.548;2.704;2023-04-24T09:11:19;100427.69;;;18.96;52.90
74680;BME280;63211;48.548;2.704;2023-04-24T09:13:46;100432.69;;;18.99;52.41
74680;BME280;63211;48.548;2.704;2023-04-24T09:16:15;100435.78;;;19.03;52.56
74680;BME280;63211;48.548;2.704;2023-04-24T09:18:42;100444.56;;;19.05;52.47
74680;BME280;63211;48.548;2.704;2023-04-24T09:21:09;100430.31;;;19.03;51.98
74680;BME280;63211;48.548;2.704;2023-04-24T09:23:38;100436.38;;;19.05;52.27
74680;BME280;63211;48.548;2.704;2023-04-24T09:26:05;100446.81;;;19.08;52.02
74680;BME280;63211;48.548;2.704;2023-04-24T09:28:34;100441.34;;;19.08;51.88
74680;BME280;63211;48.548;2.704;2023-04-24T09:31:09;100447.41;;;19.10;52.04
74680;BME280;63211;48.548;2.704;2023-04-24T09:33:36;100445.75;;;19.09;51.86
74680;BME280;63211;48.548;2.704;2023-04-24T09:36:03;100448.81;;;19.12;51.98
74680;BME280;63211;48.548;2.704;2023-04-24T09:38:34;100445.38;;;19.17;51.59
74680;BME280;63211;48.548;2.704;2023-04-24T09:41:04;100433.16;;;19.08;51.53
74680;BME280;63211;48.548;2.704;2023-04-24T09:43:31;100446.44;;;19.16;52.10
74680;BME280;63211;48.548;2.704;2023-04-24T09:46:05;100452.50;;;19.18;52.27
74680;BME280;63211;48.548;2.704;2023-04-24T09:48:32;100444.53;;;19.16;52.03
74680;BME280;63211;48.548;2.704;2023-04-24T09:51:00;100445.16;;;19.18;51.87
74680;BME280;63211;48.548;2.704;2023-04-24T09:53:28;100445.75;;;19.20;51.40
74680;BME280;63211;48.548;2.704;2023-04-24T09:55:55;100445.16;;;19.18;51.64
74680;BME280;63211;48.548;2.704;2023-04-24T09:58:26;100438.72;;;19.13;51.56
74680;BME280;63211;48.548;2.704;2023-04-24T10:00:56;100455.22;;;19.18;51.83
74680;BME280;63211;48.548;2.704;2023-04-24T10:03:24;100450.84;;;19.17;51.74
74680;BME280;63211;48.548;2.704;2023-04-24T10:05:52;100459.25;;;19.15;51.53
74680;BME280;63211;48.548;2.704;2023-04-24T10:08:19;100445.28;;;19.12;51.87
74680;BME280;63211;48.548;2.704;2023-04-24T10:10:46;100452.63;;;19.23;51.30
74680;BME280;63211;48.548;2.704;2023-04-24T10:13:14;100455.97;;;19.25;51.18
74680;BME280;63211;48.548;2.704;2023-04-24T10:15:42;100457.63;;;19.26;51.27
74680;BME280;63211;48.548;2.704;2023-04-24T10:18:09;100458.09;;;19.23;51.29
74680;BME280;63211;48.548;2.704;2023-04-24T10:20:38;100456.19;;;19.23;51.20
74680;BME280;63211;48.548;2.704;2023-04-24T10:23:05;100457.25;;;19.22;51.17
74680;BME280;63211;48.548;2.704;2023-04-24T10:25:33;100448.84;;;19.24;51.24
74680;BME280;63211;48.548;2.704;2023-04-24T10:28:01;100457.03;;;19.24;51.35
74680;BME280;63211;48.548;2.704;2023-04-24T10:30:30;100449.91;;;19.23;51.09
74680;BME280;63211;48.548;2.704;2023-04-24T10:33:01;100454.66;;;19.28;51.31
74680;BME280;63211;48.548;2.704;2023-04-24T10:35:30;100457.63;;;19.26;51.16
74680;BME280;63211;48.548;2.704;2023-04-24T10:38:00;100449.44;;;19.26;51.05
74680;BME280;63211;48.548;2.704;2023-04-24T10:40:31;100457.84;;;19.25;51.08
74680;BME280;63211;48.548;2.704;2023-04-24T10:42:57;100456.78;;;19.26;50.89
74680;BME280;63211;48.548;2.704;2023-04-24T10:45:25;100458.69;;;19.25;51.21
74680;BME280;63211;48.548;2.704;2023-04-24T10:47:52;100461.41;;;19.25;51.13
74680;BME280;63211;48.548;2.704;2023-04-24T10:50:20;100457.38;;;19.28;51.22
74680;BME280;63211;48.548;2.704;2023-04-24T10:52:48;100440.28;;;19.20;51.20
74680;BME280;63211;48.548;2.704;2023-04-24T10:55:17;100451.31;;;19.26;51.09
74680;BME280;63211;48.548;2.704;2023-04-24T10:58:04;100457.50;;;19.33;51.05
74680;BME280;63211;48.548;2.704;2023-04-24T11:00:30;100455.00;;;19.31;51.17
74680;BME280;63211;48.548;2.704;2023-04-24T11:02:57;100460.47;;;19.31;51.02
74680;BME280;63211;48.548;2.704;2023-04-24T11:08:31;100458.81;;;19.30;51.13
74680;BME280;63211;48.548;2.704;2023-04-24T11:11:01;100452.03;;;19.33;50.94
74680;BME280;63211;48.548;2.704;2023-04-24T11:14:01;100455.34;;;19.23;51.09
74680;BME280;63211;48.548;2.704;2023-04-24T11:16:29;100454.28;;;19.24;50.78
74680;BME280;63211;48.548;2.704;2023-04-24T11:19:01;100454.06;;;19.26;50.54
74680;BME280;63211;48.548;2.704;2023-04-24T11:21:31;100456.56;;;19.27;50.73
74680;BME280;63211;48.548;2.704;2023-04-24T11:27:12;100433.88;;;19.15;50.64
74680;BME280;63211;48.548;2.704;2023-04-24T11:29:41;100450.72;;;19.35;50.47
74680;BME280;63211;48.548;2.704;2023-04-24T11:32:34;100452.03;;;19.33;50.41
74680;BME280;63211;48.548;2.704;2023-04-24T11:35:03;100427.81;;;19.13;50.34
74680;BME280;63211;48.548;2.704;2023-04-24T11:37:35;100460.47;;;19.31;50.66
74680;BME280;63211;48.548;2.704;2023-04-24T11:40:05;100456.91;;;19.31;50.68
74680;BME280;63211;48.548;2.704;2023-04-24T11:42:35;100448.38;;;19.27;50.22
74680;BME280;63211;48.548;2.704;2023-04-24T11:45:07;100453.44;;;19.35;50.24
74680;BME280;63211;48.548;2.704;2023-04-24T11:47:34;100453.13;;;19.32;50.34
74680;BME280;63211;48.548;2.704;2023-04-24T11:50:01;100419.06;;;19.11;50.70
74680;BME280;63211;48.548;2.704;2023-04-24T11:52:29;100460.94;;;19.28;50.47
74680;BME280;63211;48.548;2.704;2023-04-24T11:54:55;100452.03;;;19.21;50.30
74680;BME280;63211;48.548;2.704;2023-04-24T11:57:24;100451.31;;;19.14;50.58
74680;BME280;63211;48.548;2.704;2023-04-24T11:59:54;100468.41;;;19.21;50.68
74680;BME280;63211;48.548;2.704;2023-04-24T12:02:22;100467.56;;;19.20;50.70
74680;BME280;63211;48.548;2.704;2023-04-24T12:04:49;100469.72;;;19.18;50.61
74680;BME280;63211;48.548;2.704;2023-04-24T12:07:15;100464.47;;;19.17;50.62
74680;BME280;63211;48.548;2.704;2023-04-24T12:09:43;100467.81;;;19.19;50.89
74680;BME280;63211;48.548;2.704;2023-04-24T12:12:11;100458.56;;;19.20;52.67
74680;BME280;63211;48.548;2.704;2023-04-24T12:14:47;100458.09;;;19.11;54.72
74680;BME280;63211;48.548;2.704;2023-04-24T12:17:14;100466.28;;;19.11;54.49
74680;BME280;63211;48.548;2.704;2023-04-24T12:19:45;100465.09;;;19.07;54.87
74680;BME280;63211;48.548;2.704;2023-04-24T12:22:12;100464.94;;;19.02;55.81
74680;BME280;63211;48.548;2.704;2023-04-24T12:24:56;100458.31;;;18.98;57.96
74680;BME280;63211;48.548;2.704;2023-04-24T12:27:23;100459.97;;;18.99;55.88
74680;BME280;63211;48.548;2.704;2023-04-24T12:29:55;100465.28;;;18.94;57.46
74680;BME280;63211;48.548;2.704;2023-04-24T12:32:22;100457.22;;;18.99;56.51
74680;BME280;63211;48.548;2.704;2023-04-24T12:34:49;100365.22;;;18.41;56.90
74680;BME280;63211;48.548;2.704;2023-04-24T12:37:17;100460.09;;;19.04;56.64
74680;BME280;63211;48.548;2.704;2023-04-24T12:39:58;100459.00;;;18.94;57.16
74680;BME280;63211;48.548;2.704;2023-04-24T12:42:26;100451.41;;;18.96;57.65
74680;BME280;63211;48.548;2.704;2023-04-24T12:44:57;100451.53;;;18.89;57.28
74680;BME280;63211;48.548;2.704;2023-04-24T12:47:25;100448.31;;;18.92;56.29
74680;BME280;63211;48.548;2.704;2023-04-24T12:49:51;100444.28;;;18.95;55.58
74680;BME280;63211;48.548;2.704;2023-04-24T12:52:18;100444.66;;;18.98;55.90
74680;BME280;63211;48.548;2.704;2023-04-24T12:54:46;100445.50;;;18.99;55.49
74680;BME280;63211;48.548;2.704;2023-04-24T12:57:12;100444.44;;;19.00;56.16
74680;BME280;63211;48.548;2.704;2023-04-24T12:59:39;100440.63;;;19.01;56.61